sensor_id;sensor_type;location;lat;lon;timestamp;pressure;altitude;pressure_sealevel;temperature;humidity
67430;BME280;54298;52.076;5.264;2023-02-03T00:02:46;102361.0;;;10.06;80.58
67430;BME280;54298;52.076;5.264;2023-02-03T00:04:22;102366.0;;;10.15;80.38
67430;BME280;54298;52.076;5.264;2023-02-03T00:05:59;102371.0;;;10.08;80.52
67430;BME280;54298;52.076;5.264;2023-02-03T00:09:14;102374.0;;;10.18;80.22
67430;BME280;54298;52.076;5.264;2023-02-03T00:10:50;102380.0;;;10.06;80.63
67430;BME280;54298;52.076;5.264;2023-02-03T00:12:26;102380.0;;;10.1;80.49
67430;BME280;54298;52.076;5.264;2023-02-03T00:14:04;102385.0;;;9.98;80.72
67430;BME280;54298;52.076;5.264;2023-02-03T00:17:18;102388.0;;;9.98;80.72
67430;BME280;54298;52.076;5.264;2023-02-03T00:18:54;102392.0;;;10.03;80.69
67430;BME280;54298;52.076;5.264;2023-02-03T00:20:30;102392.0;;;10.06;80.64
67430;BME280;54298;52.076;5.264;2023-02-03T00:23:44;102392.0;;;10.03;80.72
67430;BME280;54298;52.076;5.264;2023-02-03T00:25:20;102393.0;;;9.98;80.91
67430;BME280;54298;52.076;5.264;2023-02-03T00:26:57;102394.0;;;9.94;80.91
67430;BME280;54298;52.076;5.264;2023-02-03T00:28:33;102397.0;;;9.88;81.11
67430;BME280;54298;52.076;5.264;2023-02-03T00:31:47;102394.0;;;10.01;80.62
67430;BME280;54298;52.076;5.264;2023-02-03T00:33:24;102398.0;;;10.03;80.66
67430;BME280;54298;52.076;5.264;2023-02-03T00:35:01;102395.0;;;10.02;80.48
67430;BME280;54298;52.076;5.264;2023-02-03T00:38:13;102393.0;;;9.89;80.8
67430;BME280;54298;52.076;5.264;2023-02-03T00:39:49;102397.0;;;9.84;80.92
67430;BME280;54298;52.076;5.264;2023-02-03T00:41:28;102402.0;;;9.89;80.89
67430;BME280;54298;52.076;5.264;2023-02-03T00:44:41;102403.0;;;9.94;80.69
67430;BME280;54298;52.076;5.264;2023-02-03T00:46:17;102404.0;;;9.97;80.55
67430;BME280;54298;52.076;5.264;2023-02-03T00:47:53;102408.99999999999;;;9.93;80.44
67430;BME280;54298;52.076;5.264;2023-02-03T00:49:29;102395.0;;;9.94;80.49
67430;BME280;54298;52.076;5.264;2023-02-03T00:52:42;102393.0;;;10.0;80.12
67430;BME280;54298;52.076;5.264;2023-02-03T00:54:19;102397.0;;;10.03;79.87
67430;BME280;54298;52.076;5.264;2023-02-03T00:55:56;102402.0;;;10.03;79.77
67430;BME280;54298;52.076;5.264;2023-02-03T00:59:08;102388.0;;;9.97;80.09
67430;BME280;54298;52.076;5.264;2023-02-03T01:00:44;102380.0;;;10.02;79.83
67430;BME280;54298;52.076;5.264;2023-02-03T01:02:21;102380.0;;;9.89;80.11
67430;BME280;54298;52.076;5.264;2023-02-03T01:05:35;102380.0;;;9.94;79.92
67430;BME280;54298;52.076;5.264;2023-02-03T01:07:12;102368.0;;;9.93;79.88
67430;BME280;54298;52.076;5.264;2023-02-03T01:08:48;102367.0;;;9.97;79.86
67430;BME280;54298;52.076;5.264;2023-02-03T01:10:25;102380.0;;;10.06;79.3
67430;BME280;54298;52.076;5.264;2023-02-03T01:13:38;102367.0;;;10.05;79.27
67430;BME280;54298;52.076;5.264;2023-02-03T01:15:15;102370.0;;;9.97;79.58
67430;BME280;54298;52.076;5.264;2023-02-03T01:16:52;102369.0;;;9.89;79.66
67430;BME280;54298;52.076;5.264;2023-02-03T01:20:05;102375.0;;;10.05;79.2
67430;BME280;54298;52.076;5.264;2023-02-03T01:21:41;102386.0;;;9.93;79.5
67430;BME280;54298;52.076;5.264;2023-02-03T01:23:18;102375.0;;;9.93;79.24
67430;BME280;54298;52.076;5.264;2023-02-03T01:26:31;102382.0;;;9.96;79.36
67430;BME280;54298;52.076;5.264;2023-02-03T01:28:07;102377.0;;;9.98;79.2
67430;BME280;54298;52.076;5.264;2023-02-03T01:29:43;102366.0;;;10.0;79.05
67430;BME280;54298;52.076;5.264;2023-02-03T01:32:58;102366.0;;;9.93;79.12
67430;BME280;54298;52.076;5.264;2023-02-03T01:34:34;102364.0;;;9.83;79.44
67430;BME280;54298;52.076;5.264;2023-02-03T01:36:11;102346.0;;;9.77;79.66
67430;BME280;54298;52.076;5.264;2023-02-03T01:37:48;102339.0;;;9.9;79.33
67430;BME280;54298;52.076;5.264;2023-02-03T01:41:01;102336.0;;;9.99;78.88
67430;BME280;54298;52.076;5.264;2023-02-03T01:42:39;102333.0;;;9.9;78.84
67430;BME280;54298;52.076;5.264;2023-02-03T01:44:49;102328.0;;;9.9;78.88
67430;BME280;54298;52.076;5.264;2023-02-03T01:46:29;102327.0;;;10.02;78.52
67430;BME280;54298;52.076;5.264;2023-02-03T01:48:08;102308.0;;;9.99;78.45
67430;BME280;54298;52.076;5.264;2023-02-03T01:51:28;102324.0;;;9.96;78.36
67430;BME280;54298;52.076;5.264;2023-02-03T01:53:07;102331.0;;;10.1;77.94
67430;BME280;54298;52.076;5.264;2023-02-03T01:54:47;102342.0;;;10.0;77.86
67430;BME280;54298;52.076;5.264;2023-02-03T01:59:51;102338.0;;;9.94;77.97
67430;BME280;54298;52.076;5.264;2023-02-03T02:01:32;102341.0;;;9.9;77.73
67430;BME280;54298;52.076;5.264;2023-02-03T02:03:10;102331.0;;;10.08;77.16
67430;BME280;54298;52.076;5.264;2023-02-03T02:04:53;102317.0;;;10.03;77.33
67430;BME280;54298;52.076;5.264;2023-02-03T02:08:08;102314.0;;;10.14;76.94
67430;BME280;54298;52.076;5.264;2023-02-03T02:09:46;102322.0;;;10.09;76.86
67430;BME280;54298;52.076;5.264;2023-02-03T02:11:23;102328.0;;;10.08;76.92
67430;BME280;54298;52.076;5.264;2023-02-03T02:14:39;102327.0;;;9.94;77.28
67430;BME280;54298;52.076;5.264;2023-02-03T02:16:23;102317.0;;;9.9;77.34
67430;BME280;54298;52.076;5.264;2023-02-03T02:18:16;102321.0;;;9.94;77.41
67430;BME280;54298;52.076;5.264;2023-02-03T02:20:17;102314.0;;;9.92;77.42
67430;BME280;54298;52.076;5.264;2023-02-03T02:23:12;102312.0;;;9.91;77.48
67430;BME280;54298;52.076;5.264;2023-02-03T02:25:30;102318.0;;;10.03;77.08
67430;BME280;54298;52.076;5.264;2023-02-03T02:28:10;102321.0;;;9.99;77.12
67430;BME280;54298;52.076;5.264;2023-02-03T02:30:56;102331.0;;;10.0;77.05
67430;BME280;54298;52.076;5.264;2023-02-03T02:32:59;102330.0;;;9.99;76.97
67430;BME280;54298;52.076;5.264;2023-02-03T02:34:45;102330.0;;;10.05;76.77
67430;BME280;54298;52.076;5.264;2023-02-03T02:36:29;102328.0;;;10.11;76.36
67430;BME280;54298;52.076;5.264;2023-02-03T02:40:00;102330.0;;;10.15;76.41
67430;BME280;54298;52.076;5.264;2023-02-03T02:41:46;102327.0;;;10.25;76.0
67430;BME280;54298;52.076;5.264;2023-02-03T02:43:30;102333.0;;;10.11;76.19
67430;BME280;54298;52.076;5.264;2023-02-03T02:45:18;102324.0;;;10.19;76.03
67430;BME280;54298;52.076;5.264;2023-02-03T02:47:03;102316.0;;;10.14;76.33
67430;BME280;54298;52.076;5.264;2023-02-03T02:48:44;102317.0;;;10.1;76.36
67430;BME280;54298;52.076;5.264;2023-02-03T02:52:07;102318.0;;;10.16;76.33
67430;BME280;54298;52.076;5.264;2023-02-03T02:53:50;102314.0;;;10.14;76.3
67430;BME280;54298;52.076;5.264;2023-02-03T02:55:34;102299.0;;;10.18;76.24
67430;BME280;54298;52.076;5.264;2023-02-03T02:57:16;102298.0;;;10.05;76.72
67430;BME280;54298;52.076;5.264;2023-02-03T03:00:35;102289.0;;;10.08;76.63
67430;BME280;54298;52.076;5.264;2023-02-03T03:02:12;102295.0;;;10.17;76.44
67430;BME280;54298;52.076;5.264;2023-02-03T03:03:49;102289.0;;;10.1;76.47
67430;BME280;54298;52.076;5.264;2023-02-03T03:05:26;102287.0;;;10.07;76.66
67430;BME280;54298;52.076;5.264;2023-02-03T03:08:49;102292.0;;;10.15;76.39
67430;BME280;54298;52.076;5.264;2023-02-03T03:10:30;102278.0;;;10.22;76.12
67430;BME280;54298;52.076;5.264;2023-02-03T03:12:11;102282.0;;;10.27;75.81
67430;BME280;54298;52.076;5.264;2023-02-03T03:13:52;102281.0;;;10.19;76.06
67430;BME280;54298;52.076;5.264;2023-02-03T03:17:11;102290.0;;;10.1;76.3
67430;BME280;54298;52.076;5.264;2023-02-03T03:18:55;102290.0;;;10.25;75.92
67430;BME280;54298;52.076;5.264;2023-02-03T03:20:34;102288.0;;;10.14;76.13
67430;BME280;54298;52.076;5.264;2023-02-03T03:22:14;102291.0;;;10.1;76.3
67430;BME280;54298;52.076;5.264;2023-02-03T03:25:38;102287.0;;;10.08;76.3
67430;BME280;54298;52.076;5.264;2023-02-03T03:27:19;102295.0;;;10.25;75.92
67430;BME280;54298;52.076;5.264;2023-02-03T03:29:05;102294.0;;;10.31;75.74
67430;BME280;54298;52.076;5.264;2023-02-03T03:30:45;102298.0;;;10.14;76.25
67430;BME280;54298;52.076;5.264;2023-02-03T03:33:58;102287.0;;;10.17;76.11
67430;BME280;54298;52.076;5.264;2023-02-03T03:35:38;102291.0;;;10.17;76.05
67430;BME280;54298;52.076;5.264;2023-02-03T03:37:23;102293.0;;;10.13;76.36
67430;BME280;54298;52.076;5.264;2023-02-03T03:39:10;102305.0;;;10.06;76.41
67430;BME280;54298;52.076;5.264;2023-02-03T03:42:40;102301.0;;;10.13;76.38
67430;BME280;54298;52.076;5.264;2023-02-03T03:44:21;102309.0;;;10.11;76.41
67430;BME280;54298;52.076;5.264;2023-02-03T03:46:05;102315.0;;;10.1;76.47
67430;BME280;54298;52.076;5.264;2023-02-03T03:47:48;102314.0;;;10.06;76.69
67430;BME280;54298;52.076;5.264;2023-02-03T03:49:29;102307.0;;;10.1;76.55
67430;BME280;54298;52.076;5.264;2023-02-03T03:52:52;102305.0;;;10.26;76.05
67430;BME280;54298;52.076;5.264;2023-02-03T03:54:31;102310.0;;;10.24;76.11
67430;BME280;54298;52.076;5.264;2023-02-03T03:56:14;102311.0;;;10.19;76.06
67430;BME280;54298;52.076;5.264;2023-02-03T03:57:57;102321.0;;;10.18;76.06
67430;BME280;54298;52.076;5.264;2023-02-03T04:01:18;102325.0;;;10.17;76.11
67430;BME280;54298;52.076;5.264;2023-02-03T04:02:59;102322.0;;;10.15;76.19
67430;BME280;54298;52.076;5.264;2023-02-03T04:04:40;102324.0;;;10.15;76.13
67430;BME280;54298;52.076;5.264;2023-02-03T04:06:18;102316.0;;;10.19;76.11
67430;BME280;54298;52.076;5.264;2023-02-03T04:09:30;102311.0;;;10.18;75.94
67430;BME280;54298;52.076;5.264;2023-02-03T04:11:06;102330.0;;;10.19;75.94
67430;BME280;54298;52.076;5.264;2023-02-03T04:12:43;102322.0;;;10.23;75.83
67430;BME280;54298;52.076;5.264;2023-02-03T04:15:56;102332.0;;;10.19;75.83
67430;BME280;54298;52.076;5.264;2023-02-03T04:17:35;102318.0;;;10.23;75.58
67430;BME280;54298;52.076;5.264;2023-02-03T04:19:11;102320.0;;;10.29;75.59
67430;BME280;54298;52.076;5.264;2023-02-03T04:20:47;102333.0;;;10.23;75.74
67430;BME280;54298;52.076;5.264;2023-02-03T04:23:59;102323.0;;;10.23;75.84
67430;BME280;54298;52.076;5.264;2023-02-03T04:25:36;102316.0;;;10.14;76.13
67430;BME280;54298;52.076;5.264;2023-02-03T04:27:12;102319.0;;;10.13;76.24
67430;BME280;54298;52.076;5.264;2023-02-03T04:30:25;102318.0;;;10.14;76.19
67430;BME280;54298;52.076;5.264;2023-02-03T04:32:02;102314.0;;;10.15;76.05
67430;BME280;54298;52.076;5.264;2023-02-03T04:33:38;102309.0;;;10.26;75.81
67430;BME280;54298;52.076;5.264;2023-02-03T04:36:51;102312.0;;;10.41;75.34
67430;BME280;54298;52.076;5.264;2023-02-03T04:38:28;102311.0;;;10.38;75.38
67430;BME280;54298;52.076;5.264;2023-02-03T04:40:05;102310.0;;;10.41;75.22
67430;BME280;54298;52.076;5.264;2023-02-03T04:41:42;102310.0;;;10.29;75.61
67430;BME280;54298;52.076;5.264;2023-02-03T04:44:54;102314.0;;;10.28;75.49
67430;BME280;54298;52.076;5.264;2023-02-03T04:46:30;102319.0;;;10.25;75.97
67430;BME280;54298;52.076;5.264;2023-02-03T04:48:06;102320.0;;;10.25;75.97
67430;BME280;54298;52.076;5.264;2023-02-03T04:51:20;102309.0;;;10.31;75.75
67430;BME280;54298;52.076;5.264;2023-02-03T04:52:58;102309.0;;;10.29;75.8
67430;BME280;54298;52.076;5.264;2023-02-03T04:54:34;102305.0;;;10.33;75.66
67430;BME280;54298;52.076;5.264;2023-02-03T04:57:54;102305.0;;;10.37;75.64
67430;BME280;54298;52.076;5.264;2023-02-03T04:59:31;102305.0;;;10.31;75.8
67430;BME280;54298;52.076;5.264;2023-02-03T05:01:08;102305.0;;;10.27;75.83
67430;BME280;54298;52.076;5.264;2023-02-03T05:02:45;102310.0;;;10.44;75.27
67430;BME280;54298;52.076;5.264;2023-02-03T05:05:57;102313.0;;;10.41;75.52
67430;BME280;54298;52.076;5.264;2023-02-03T05:07:33;102317.0;;;10.38;75.49
67430;BME280;54298;52.076;5.264;2023-02-03T05:09:10;102311.0;;;10.37;75.58
67430;BME280;54298;52.076;5.264;2023-02-03T05:12:22;102313.0;;;10.24;75.92
67430;BME280;54298;52.076;5.264;2023-02-03T05:13:58;102295.0;;;10.21;75.86
67430;BME280;54298;52.076;5.264;2023-02-03T05:15:34;102295.0;;;10.23;76.0
67430;BME280;54298;52.076;5.264;2023-02-03T05:18:46;102301.0;;;10.17;76.27
67430;BME280;54298;52.076;5.264;2023-02-03T05:20:22;102310.0;;;10.14;76.41
67430;BME280;54298;52.076;5.264;2023-02-03T05:21:59;102316.0;;;10.15;76.27
67430;BME280;54298;52.076;5.264;2023-02-03T05:23:35;102324.0;;;10.23;75.98
67430;BME280;54298;52.076;5.264;2023-02-03T05:26:49;102324.0;;;10.27;75.84
67430;BME280;54298;52.076;5.264;2023-02-03T05:28:25;102335.0;;;10.31;75.61
67430;BME280;54298;52.076;5.264;2023-02-03T05:30:01;102324.0;;;10.39;75.36
67430;BME280;54298;52.076;5.264;2023-02-03T05:33:15;102323.0;;;10.51;74.92
67430;BME280;54298;52.076;5.264;2023-02-03T05:34:52;102328.0;;;10.5;74.67
67430;BME280;54298;52.076;5.264;2023-02-03T05:36:28;102318.0;;;10.45;74.91
67430;BME280;54298;52.076;5.264;2023-02-03T05:39:41;102319.0;;;10.46;74.94
67430;BME280;54298;52.076;5.264;2023-02-03T05:42:22;102313.0;;;10.37;75.05
67430;BME280;54298;52.076;5.264;2023-02-03T05:43:58;102313.0;;;10.31;75.22
67430;BME280;54298;52.076;5.264;2023-02-03T05:45:35;102307.0;;;10.33;75.22
67430;BME280;54298;52.076;5.264;2023-02-03T05:47:12;102306.0;;;10.27;75.31
67430;BME280;54298;52.076;5.264;2023-02-03T05:48:49;102305.0;;;10.17;75.52
67430;BME280;54298;52.076;5.264;2023-02-03T05:52:02;102309.0;;;10.3;75.27
67430;BME280;54298;52.076;5.264;2023-02-03T05:53:39;102312.0;;;10.3;75.24
67430;BME280;54298;52.076;5.264;2023-02-03T05:55:16;102314.0;;;10.3;75.33
67430;BME280;54298;52.076;5.264;2023-02-03T05:58:28;102319.0;;;10.29;75.13
67430;BME280;54298;52.076;5.264;2023-02-03T06:00:07;102327.0;;;10.3;75.13
67430;BME280;54298;52.076;5.264;2023-02-03T06:01:44;102316.0;;;10.25;75.27
67430;BME280;54298;52.076;5.264;2023-02-03T06:03:20;102309.0;;;10.25;75.47
67430;BME280;54298;52.076;5.264;2023-02-03T06:06:33;102321.0;;;10.34;75.34
67430;BME280;54298;52.076;5.264;2023-02-03T06:08:09;102325.0;;;10.42;74.97
67430;BME280;54298;52.076;5.264;2023-02-03T06:09:46;102314.0;;;10.26;75.3
67430;BME280;54298;52.076;5.264;2023-02-03T06:13:06;102318.0;;;10.27;75.44
67430;BME280;54298;52.076;5.264;2023-02-03T06:14:44;102322.0;;;10.23;75.7
67430;BME280;54298;52.076;5.264;2023-02-03T06:16:21;102322.0;;;10.19;75.72
67430;BME280;54298;52.076;5.264;2023-02-03T06:17:57;102316.0;;;10.27;75.61
67430;BME280;54298;52.076;5.264;2023-02-03T06:21:10;102308.0;;;10.19;75.78
67430;BME280;54298;52.076;5.264;2023-02-03T06:22:46;102326.0;;;10.25;75.58
67430;BME280;54298;52.076;5.264;2023-02-03T06:24:22;102317.0;;;10.28;75.55
67430;BME280;54298;52.076;5.264;2023-02-03T06:27:35;102318.0;;;10.39;75.22
67430;BME280;54298;52.076;5.264;2023-02-03T06:29:12;102316.0;;;10.32;75.25
67430;BME280;54298;52.076;5.264;2023-02-03T06:30:49;102319.0;;;10.21;75.72
67430;BME280;54298;52.076;5.264;2023-02-03T06:34:02;102323.0;;;10.19;75.95
67430;BME280;54298;52.076;5.264;2023-02-03T06:35:39;102330.0;;;10.19;75.98
67430;BME280;54298;52.076;5.264;2023-02-03T06:37:16;102324.0;;;10.24;75.84
67430;BME280;54298;52.076;5.264;2023-02-03T06:38:52;102330.0;;;10.15;76.08
67430;BME280;54298;52.076;5.264;2023-02-03T06:42:06;102337.0;;;10.23;76.02
67430;BME280;54298;52.076;5.264;2023-02-03T06:43:43;102327.0;;;10.19;76.08
67430;BME280;54298;52.076;5.264;2023-02-03T06:45:19;102318.0;;;10.3;75.95
67430;BME280;54298;52.076;5.264;2023-02-03T06:48:32;102318.0;;;10.16;76.27
67430;BME280;54298;52.076;5.264;2023-02-03T06:50:09;102321.0;;;10.06;76.61
67430;BME280;54298;52.076;5.264;2023-02-03T06:51:47;102325.0;;;10.18;76.36
67430;BME280;54298;52.076;5.264;2023-02-03T06:54:59;102336.0;;;10.22;76.31
67430;BME280;54298;52.076;5.264;2023-02-03T06:56:35;102350.0;;;10.27;76.17
67430;BME280;54298;52.076;5.264;2023-02-03T06:58:12;102341.0;;;10.25;76.22
67430;BME280;54298;52.076;5.264;2023-02-03T06:59:48;102334.0;;;10.25;76.05
67430;BME280;54298;52.076;5.264;2023-02-03T07:03:02;102342.0;;;10.3;75.97
67430;BME280;54298;52.076;5.264;2023-02-03T07:04:38;102355.0;;;10.37;75.84
67430;BME280;54298;52.076;5.264;2023-02-03T07:06:14;102360.0;;;10.32;75.84
67430;BME280;54298;52.076;5.264;2023-02-03T07:09:27;102363.0;;;10.42;75.58
67430;BME280;54298;52.076;5.264;2023-02-03T07:11:04;102357.0;;;10.29;76.02
67430;BME280;54298;52.076;5.264;2023-02-03T07:12:41;102366.0;;;10.32;75.97
67430;BME280;54298;52.076;5.264;2023-02-03T07:15:53;102366.0;;;10.43;75.78
67430;BME280;54298;52.076;5.264;2023-02-03T07:17:29;102368.0;;;10.35;75.86
67430;BME280;54298;52.076;5.264;2023-02-03T07:19:06;102375.0;;;10.39;75.98
67430;BME280;54298;52.076;5.264;2023-02-03T07:20:42;102368.0;;;10.42;75.92
67430;BME280;54298;52.076;5.264;2023-02-03T07:23:55;102373.0;;;10.42;75.99
67430;BME280;54298;52.076;5.264;2023-02-03T07:25:31;102370.0;;;10.43;75.88
67430;BME280;54298;52.076;5.264;2023-02-03T07:27:07;102374.0;;;10.36;76.06
67430;BME280;54298;52.076;5.264;2023-02-03T07:30:20;102367.0;;;10.34;76.23
67430;BME280;54298;52.076;5.264;2023-02-03T07:31:56;102360.0;;;10.32;76.45
67430;BME280;54298;52.076;5.264;2023-02-03T07:33:33;102375.0;;;10.31;76.52
67430;BME280;54298;52.076;5.264;2023-02-03T07:36:45;102376.0;;;10.28;76.64
67430;BME280;54298;52.076;5.264;2023-02-03T07:38:22;102373.0;;;10.29;76.75
67430;BME280;54298;52.076;5.264;2023-02-03T07:39:59;102378.0;;;10.4;76.5
67430;BME280;54298;52.076;5.264;2023-02-03T07:41:35;102377.0;;;10.29;76.77
67430;BME280;54298;52.076;5.264;2023-02-03T07:44:48;102381.0;;;10.39;76.59
67430;BME280;54298;52.076;5.264;2023-02-03T07:46:24;102380.0;;;10.39;76.61
67430;BME280;54298;52.076;5.264;2023-02-03T07:48:00;102376.0;;;10.38;76.59
67430;BME280;54298;52.076;5.264;2023-02-03T07:51:12;102378.0;;;10.33;76.91
67430;BME280;54298;52.076;5.264;2023-02-03T07:52:49;102370.0;;;10.23;77.05
67430;BME280;54298;52.076;5.264;2023-02-03T07:54:26;102381.0;;;10.22;77.45
67430;BME280;54298;52.076;5.264;2023-02-03T07:57:42;102378.0;;;10.38;76.97
67430;BME280;54298;52.076;5.264;2023-02-03T07:59:19;102378.0;;;10.24;77.36
67430;BME280;54298;52.076;5.264;2023-02-03T08:00:56;102384.0;;;10.26;77.36
67430;BME280;54298;52.076;5.264;2023-02-03T08:02:32;102387.0;;;10.26;77.44
67430;BME280;54298;52.076;5.264;2023-02-03T08:05:48;102376.0;;;10.35;77.22
67430;BME280;54298;52.076;5.264;2023-02-03T08:07:25;102385.0;;;10.45;76.77
67430;BME280;54298;52.076;5.264;2023-02-03T08:09:01;102384.0;;;10.37;77.02
67430;BME280;54298;52.076;5.264;2023-02-03T08:12:13;102386.0;;;10.34;77.19
67430;BME280;54298;52.076;5.264;2023-02-03T08:13:50;102385.0;;;10.42;77.02
67430;BME280;54298;52.076;5.264;2023-02-03T08:15:25;102395.0;;;10.42;77.17
67430;BME280;54298;52.076;5.264;2023-02-03T08:18:38;102404.0;;;10.38;77.27
67430;BME280;54298;52.076;5.264;2023-02-03T08:20:16;102411.99999999999;;;10.35;77.39
67430;BME280;54298;52.076;5.264;2023-02-03T08:21:52;102414.00000000001;;;10.35;77.48
67430;BME280;54298;52.076;5.264;2023-02-03T08:23:28;102408.0;;;10.49;77.09
67430;BME280;54298;52.076;5.264;2023-02-03T08:26:42;102406.0;;;10.42;77.17
67430;BME280;54298;52.076;5.264;2023-02-03T08:28:18;102414.00000000001;;;10.4;77.33
67430;BME280;54298;52.076;5.264;2023-02-03T08:29:55;102418.0;;;10.35;77.69
67430;BME280;54298;52.076;5.264;2023-02-03T08:33:07;102408.99999999999;;;10.38;77.55
67430;BME280;54298;52.076;5.264;2023-02-03T08:34:44;102413.00000000001;;;10.39;77.47
67430;BME280;54298;52.076;5.264;2023-02-03T08:36:21;102413.00000000001;;;10.39;77.47
67430;BME280;54298;52.076;5.264;2023-02-03T08:39:34;102427.0;;;10.48;77.38
67430;BME280;54298;52.076;5.264;2023-02-03T08:41:14;102415.00000000001;;;10.58;76.98
67430;BME280;54298;52.076;5.264;2023-02-03T08:42:51;102413.00000000001;;;10.62;76.94
67430;BME280;54298;52.076;5.264;2023-02-03T08:44:29;102408.99999999999;;;10.66;76.69
67430;BME280;54298;52.076;5.264;2023-02-03T08:47:45;102417.0;;;10.55;76.92
67430;BME280;54298;52.076;5.264;2023-02-03T08:49:24;102419.0;;;10.61;76.83
67430;BME280;54298;52.076;5.264;2023-02-03T08:51:00;102423.0;;;10.59;76.83
67430;BME280;54298;52.076;5.264;2023-02-03T08:54:14;102427.0;;;10.58;76.94
67430;BME280;54298;52.076;5.264;2023-02-03T08:55:51;102436.99999999999;;;10.53;76.94
67430;BME280;54298;52.076;5.264;2023-02-03T08:57:31;102423.0;;;10.62;76.81
67430;BME280;54298;52.076;5.264;2023-02-03T08:59:08;102421.0;;;10.53;76.99
67430;BME280;54298;52.076;5.264;2023-02-03T09:02:21;102436.99999999999;;;10.64;76.74
67430;BME280;54298;52.076;5.264;2023-02-03T09:04:01;102431.0;;;10.78;76.48
67430;BME280;54298;52.076;5.264;2023-02-03T09:05:37;102444.0;;;10.72;76.45
67430;BME280;54298;52.076;5.264;2023-02-03T09:08:51;102438.00000000001;;;10.73;76.33
67430;BME280;54298;52.076;5.264;2023-02-03T09:10:27;102446.0;;;10.68;76.8
67430;BME280;54298;52.076;5.264;2023-02-03T09:12:05;102440.00000000001;;;10.73;76.5
67430;BME280;54298;52.076;5.264;2023-02-03T09:13:45;102451.0;;;10.86;76.11
67430;BME280;54298;52.076;5.264;2023-02-03T09:16:59;102447.0;;;10.91;75.97
67430;BME280;54298;52.076;5.264;2023-02-03T09:18:35;102454.0;;;11.0;75.69
67430;BME280;54298;52.076;5.264;2023-02-03T09:20:14;102454.0;;;10.84;76.25
67430;BME280;54298;52.076;5.264;2023-02-03T09:23:27;102453.0;;;10.95;75.97
67430;BME280;54298;52.076;5.264;2023-02-03T09:25:03;102457.0;;;10.95;75.87
67430;BME280;54298;52.076;5.264;2023-02-03T09:26:40;102449.0;;;10.85;76.23
67430;BME280;54298;52.076;5.264;2023-02-03T09:28:16;102463.00000000001;;;10.88;76.05
67430;BME280;54298;52.076;5.264;2023-02-03T09:31:29;102459.99999999999;;;10.9;76.05
67430;BME280;54298;52.076;5.264;2023-02-03T09:33:05;102457.0;;;10.89;76.25
67430;BME280;54298;52.076;5.264;2023-02-03T09:34:41;102444.0;;;10.97;76.11
67430;BME280;54298;52.076;5.264;2023-02-03T09:37:53;102450.0;;;11.0;75.86
67430;BME280;54298;52.076;5.264;2023-02-03T09:39:29;102458.0;;;10.91;75.97
67430;BME280;54298;52.076;5.264;2023-02-03T09:41:16;102477.0;;;11.01;75.87
67430;BME280;54298;52.076;5.264;2023-02-03T09:43:15;102458.0;;;10.92;76.14
67430;BME280;54298;52.076;5.264;2023-02-03T09:45:13;102458.99999999999;;;10.94;75.83
67430;BME280;54298;52.076;5.264;2023-02-03T09:48:36;102467.0;;;11.06;75.75
67430;BME280;54298;52.076;5.264;2023-02-03T09:50:19;102477.0;;;11.22;75.22
67430;BME280;54298;52.076;5.264;2023-02-03T09:52:02;102474.0;;;11.1;75.36
67430;BME280;54298;52.076;5.264;2023-02-03T09:53:43;102477.0;;;11.14;75.45
67430;BME280;54298;52.076;5.264;2023-02-03T09:57:14;102482.0;;;11.13;75.17
67430;BME280;54298;52.076;5.264;2023-02-03T09:58:53;102483.0;;;11.17;75.09
67430;BME280;54298;52.076;5.264;2023-02-03T10:00:32;102480.0;;;11.24;74.61
67430;BME280;54298;52.076;5.264;2023-02-03T10:02:20;102483.99999999999;;;11.37;74.49
67430;BME280;54298;52.076;5.264;2023-02-03T10:04:22;102472.0;;;11.19;74.83
67430;BME280;54298;52.076;5.264;2023-02-03T10:06:11;102483.99999999999;;;11.13;75.22
67430;BME280;54298;52.076;5.264;2023-02-03T10:09:52;102492.0;;;11.1;75.08
67430;BME280;54298;52.076;5.264;2023-02-03T10:11:50;102488.00000000001;;;11.12;75.03
67430;BME280;54298;52.076;5.264;2023-02-03T10:13:52;102498.0;;;11.22;74.97
67430;BME280;54298;52.076;5.264;2023-02-03T10:16:03;102503.0;;;11.32;74.52
67430;BME280;54298;52.076;5.264;2023-02-03T10:17:47;102497.0;;;11.17;74.95
67430;BME280;54298;52.076;5.264;2023-02-03T10:19:39;102501.0;;;11.22;74.89
67430;BME280;54298;52.076;5.264;2023-02-03T10:21:31;102519.0;;;11.22;74.87
67430;BME280;54298;52.076;5.264;2023-02-03T10:23:13;102505.0;;;11.21;74.91
67430;BME280;54298;52.076;5.264;2023-02-03T10:24:54;102517.0;;;11.16;74.88
67430;BME280;54298;52.076;5.264;2023-02-03T10:28:17;102513.00000000001;;;11.18;74.88
67430;BME280;54298;52.076;5.264;2023-02-03T10:29:59;102520.0;;;11.27;74.62
67430;BME280;54298;52.076;5.264;2023-02-03T10:31:39;102514.00000000001;;;11.28;74.62
67430;BME280;54298;52.076;5.264;2023-02-03T10:33:18;102506.0;;;11.23;74.74
67430;BME280;54298;52.076;5.264;2023-02-03T10:36:40;102505.0;;;11.15;74.87
67430;BME280;54298;52.076;5.264;2023-02-03T10:38:36;102517.0;;;11.22;74.83
67430;BME280;54298;52.076;5.264;2023-02-03T10:40:23;102517.0;;;11.2;74.89
67430;BME280;54298;52.076;5.264;2023-02-03T10:42:02;102517.0;;;11.3;74.52
67430;BME280;54298;52.076;5.264;2023-02-03T10:43:48;102533.0;;;11.18;75.33
67430;BME280;54298;52.076;5.264;2023-02-03T10:47:01;102533.99999999999;;;11.17;74.99
67430;BME280;54298;52.076;5.264;2023-02-03T10:48:45;102528.0;;;11.26;74.92
67430;BME280;54298;52.076;5.264;2023-02-03T10:50:24;102534.99999999999;;;11.26;74.73
67430;BME280;54298;52.076;5.264;2023-02-03T10:52:04;102540.00000000001;;;11.18;74.95
67430;BME280;54298;52.076;5.264;2023-02-03T10:55:31;102533.0;;;11.09;75.42
67430;BME280;54298;52.076;5.264;2023-02-03T10:57:11;102523.0;;;11.14;75.13
67430;BME280;54298;52.076;5.264;2023-02-03T10:58:52;102528.0;;;11.18;75.13
67430;BME280;54298;52.076;5.264;2023-02-03T11:00:31;102522.0;;;11.15;75.11
67430;BME280;54298;52.076;5.264;2023-02-03T11:04:05;102527.0;;;11.18;75.05
67430;BME280;54298;52.076;5.264;2023-02-03T11:05:42;102539.00000000001;;;11.11;75.36